createdAt,value
2019-04-01T00:00:34.743Z,81.27
2019-04-01T00:01:34.756Z,81.75
2019-04-01T00:02:34.814Z,81.94
2019-04-01T00:03:34.769Z,82.32
2019-04-01T00:04:34.804Z,82.13
2019-04-01T00:05:35.302Z,81.85
2019-04-01T00:06:34.972Z,81.75
2019-04-01T00:07:34.818Z,81.27
2019-04-01T00:08:34.830Z,81.32
2019-04-01T00:09:34.852Z,80.90
2019-04-01T00:10:34.839Z,81.18
2019-04-01T00:11:34.920Z,81.09
2019-04-01T00:12:34.858Z,80.80
2019-04-01T00:13:34.876Z,81.37
2019-04-01T00:14:34.881Z,80.52
2019-04-01T00:15:34.890Z,80.99
2019-04-01T00:16:34.897Z,80.90
2019-04-01T00:17:35.164Z,81.09
2019-04-01T00:18:34.967Z,81.47
2019-04-01T00:19:34.926Z,81.66
2019-04-01T00:20:34.942Z,81.66
2019-04-01T00:21:34.946Z,81.37
2019-04-01T00:22:34.978Z,81.27
2019-04-01T00:23:34.963Z,81.75
2019-04-01T00:24:35.000Z,81.37
2019-04-01T00:25:35.019Z,81.09
2019-04-01T00:26:34.998Z,81.56
2019-04-01T00:27:35.035Z,81.66
2019-04-01T00:28:35.063Z,80.99
2019-04-01T00:29:35.025Z,81.18
2019-04-01T00:30:35.033Z,81.18
2019-04-01T00:31:35.057Z,82.04
2019-04-01T00:32:35.058Z,81.75
2019-04-01T00:33:35.065Z,80.99
2019-04-01T00:34:35.083Z,81.09
2019-04-01T00:35:35.083Z,81.75
2019-04-01T00:36:35.131Z,82.04
2019-04-01T00:37:35.103Z,81.27
2019-04-01T00:38:35.109Z,81.66
2019-04-01T00:40:35.131Z,81.75
2019-04-01T00:41:35.141Z,82.04
2019-04-01T00:42:35.215Z,81.94
2019-04-01T00:43:35.171Z,81.66
2019-04-01T00:44:35.175Z,81.56
2019-04-01T00:46:35.188Z,81.56
2019-04-01T00:47:35.300Z,81.94
2019-04-01T00:48:35.209Z,82.60
2019-04-01T00:49:35.218Z,82.51
2019-04-01T00:50:35.895Z,82.51
2019-04-01T00:51:35.265Z,82.51
2019-04-01T00:52:35.686Z,82.60
2019-04-01T00:53:35.251Z,82.89
2019-04-01T00:55:35.413Z,82.98
2019-04-01T00:56:35.352Z,82.60
2019-04-01T00:57:35.292Z,82.60
2019-04-01T00:58:35.300Z,82.51
2019-04-01T00:59:35.315Z,82.23
2019-04-01T01:00:35.329Z,82.79
2019-04-01T01:01:35.697Z,82.98
2019-04-01T01:02:35.350Z,82.89
2019-04-01T01:03:35.349Z,83.08
2019-04-01T01:04:35.373Z,82.89
2019-04-01T01:05:35.367Z,83.17
2019-04-01T01:06:35.376Z,83.55
2019-04-01T01:07:35.383Z,83.84
2019-04-01T01:08:35.411Z,83.36
2019-04-01T01:09:35.741Z,84.03
2019-04-01T01:10:35.438Z,83.65
2019-04-01T01:11:35.422Z,84.03
2019-04-01T01:12:35.432Z,83.74
2019-04-01T01:13:35.445Z,84.50
2019-04-01T01:14:35.478Z,83.94
2019-04-01T01:15:35.581Z,83.84
2019-04-01T01:16:35.467Z,83.84
2019-04-01T01:17:35.486Z,83.65
2019-04-01T01:18:35.488Z,83.84
2019-04-01T01:19:35.560Z,83.55
2019-04-01T01:21:36.298Z,84.59
2019-04-01T01:22:35.549Z,84.22
2019-04-01T01:23:35.539Z,84.03
2019-04-01T01:24:35.541Z,84.41
2019-04-01T01:25:35.558Z,83.94
2019-04-01T01:26:35.596Z,84.03
2019-04-01T01:27:35.616Z,84.31
2019-04-01T01:28:35.620Z,83.94
2019-04-01T01:29:35.591Z,84.50
2019-04-01T01:30:35.601Z,84.50
2019-04-01T01:31:35.611Z,84.50
2019-04-01T01:32:35.624Z,84.59
2019-04-01T01:33:35.630Z,84.59
2019-04-01T01:34:35.640Z,84.69
2019-04-01T01:35:35.649Z,85.26
2019-04-01T01:36:35.664Z,84.22
2019-04-01T01:37:35.675Z,84.59
2019-04-01T01:38:35.681Z,84.98
2019-04-01T01:39:35.709Z,84.59
2019-04-01T01:40:35.693Z,84.69
2019-04-01T01:41:35.701Z,85.17
2019-04-01T01:42:35.726Z,84.84
2019-04-01T01:43:35.729Z,84.84
2019-04-01T01:44:35.730Z,85.26
2019-04-01T01:45:35.741Z,85.22
2019-04-01T01:46:35.784Z,84.74
2019-04-01T01:47:36.189Z,84.84
2019-04-01T01:48:35.867Z,85.03
2019-04-01T01:49:35.834Z,85.78
2019-04-01T01:50:35.856Z,85.03
2019-04-01T01:51:35.899Z,85.22
2019-04-01T01:52:35.914Z,85.50
2019-04-01T01:53:35.857Z,85.50
2019-04-01T01:54:35.852Z,85.03
2019-04-01T01:55:35.870Z,84.94
2019-04-01T01:56:36.234Z,85.60
2019-04-01T01:57:35.918Z,85.41
2019-04-01T02:00:35.897Z,85.41
2019-04-01T02:01:35.897Z,85.41
2019-04-01T02:02:35.901Z,85.13
2019-04-01T02:03:35.909Z,85.03
2019-04-01T02:04:35.919Z,85.41
2019-04-01T02:05:35.958Z,85.50
2019-04-01T02:06:36.031Z,85.69
2019-04-01T02:07:35.959Z,86.35
2019-04-01T02:09:35.966Z,86.16
2019-04-01T02:10:36.248Z,86.64
2019-04-01T02:11:36.027Z,86.74
2019-04-01T02:12:36.002Z,86.93
2019-04-01T02:13:36.009Z,86.93
2019-04-01T02:14:36.010Z,86.45
2019-04-01T02:15:36.023Z,86.07
2019-04-01T02:16:36.031Z,86.83
2019-04-01T02:17:36.043Z,86.83
2019-04-01T02:18:36.052Z,86.74
2019-04-01T02:19:36.138Z,86.55
2019-04-01T02:20:36.071Z,86.35
2019-04-01T02:21:36.076Z,85.88
2019-04-01T02:22:36.088Z,86.35
2019-04-01T02:23:36.106Z,86.74
2019-04-01T02:24:36.146Z,86.64
2019-04-01T02:25:36.114Z,86.83
2019-04-01T02:27:36.273Z,86.74
2019-04-01T02:28:36.296Z,87.02
2019-04-01T02:30:36.803Z,88.16
2019-04-01T02:31:36.163Z,87.59
2019-04-01T02:32:36.180Z,88.35
2019-04-01T02:33:36.198Z,87.97
2019-04-01T02:34:36.191Z,88.25
2019-04-01T02:35:37.012Z,87.68
2019-04-01T02:36:36.228Z,87.59
2019-04-01T02:37:36.349Z,88.16
2019-04-01T02:38:36.278Z,89.39
2019-04-01T02:39:36.254Z,89.39
2019-04-01T02:40:36.253Z,89.39
2019-04-01T02:41:36.262Z,88.92
2019-04-01T02:42:36.275Z,88.73
2019-04-01T02:43:36.277Z,89.01
2019-04-01T02:46:36.314Z,88.63
2019-04-01T02:47:36.320Z,89.01
2019-04-01T02:48:36.319Z,88.63
2019-04-01T02:51:36.655Z,88.35
2019-04-01T02:52:36.386Z,88.35
2019-04-01T02:53:36.373Z,88.63
2019-04-01T02:54:36.389Z,88.73
2019-04-01T02:55:36.385Z,88.92
2019-04-01T02:56:36.394Z,89.29
2019-04-01T02:57:36.419Z,89.20
2019-04-01T02:58:36.417Z,89.58
2019-04-01T02:59:36.428Z,89.48
2019-04-01T03:00:36.437Z,89.20
2019-04-01T03:01:36.449Z,89.44
2019-04-01T03:02:36.446Z,89.91
2019-04-01T03:03:36.467Z,89.72
2019-04-01T03:04:36.467Z,89.67
2019-04-01T03:05:36.476Z,90.67
2019-04-01T03:06:36.483Z,90.48
2019-04-01T03:07:36.499Z,90.53
2019-04-01T03:08:36.509Z,90.48
2019-04-01T03:09:36.510Z,89.72
2019-04-01T03:10:36.552Z,89.63
2019-04-01T03:11:36.535Z,89.72
2019-04-01T03:12:36.545Z,90.67
2019-04-01T03:13:36.556Z,90.48
2019-04-01T03:14:37.138Z,90.86
2019-04-01T03:15:37.466Z,90.01
2019-04-01T03:16:37.072Z,90.48
2019-04-01T03:18:36.599Z,89.63
2019-04-01T03:21:36.741Z,90.86
2019-04-01T03:22:36.803Z,90.77
2019-04-01T03:23:36.824Z,91.24
2019-04-01T03:24:37.221Z,91.14
2019-04-01T03:25:36.675Z,91.24
2019-04-01T03:26:36.723Z,91.81
2019-04-01T03:27:36.677Z,91.05
2019-04-01T03:29:36.720Z,91.43
2019-04-01T03:30:36.711Z,91.14
2019-04-01T03:31:36.710Z,91.24
2019-04-01T03:32:44.306Z,91.62
2019-04-01T03:33:36.752Z,91.43
2019-04-01T03:34:36.739Z,91.62
2019-04-01T03:35:36.752Z,91.62
2019-04-01T03:36:36.754Z,91.81
2019-04-01T03:37:36.776Z,91.71
2019-04-01T03:38:36.779Z,92.28
2019-04-01T03:39:36.782Z,91.62
2019-04-01T03:40:36.792Z,91.71
2019-04-01T03:41:36.809Z,91.62
2019-04-01T03:42:36.812Z,91.52
2019-04-01T03:43:36.824Z,91.33
2019-04-01T03:44:36.971Z,91.43
2019-04-01T03:45:36.838Z,91.71
2019-04-01T03:46:36.984Z,92.09
2019-04-01T03:47:36.898Z,92.38
2019-04-01T03:48:36.867Z,92.19
2019-04-01T03:49:36.885Z,92.09
2019-04-01T03:50:37.281Z,92.28
2019-04-01T03:51:37.059Z,92.09
2019-04-01T03:52:36.899Z,91.90
2019-04-01T03:53:36.945Z,92.66
2019-04-01T03:54:36.928Z,92.66
2019-04-01T03:55:36.937Z,93.23
2019-04-01T03:56:36.959Z,93.70
2019-04-01T03:57:36.946Z,93.13
2019-04-01T03:58:36.969Z,93.23
2019-04-01T03:59:36.960Z,93.32
2019-04-01T04:00:37.233Z,93.32
2019-04-01T04:01:37.394Z,93.61
2019-04-01T04:02:37.003Z,93.04
2019-04-01T04:03:37.059Z,93.13
2019-04-01T04:04:37.013Z,93.32
2019-04-01T04:05:37.032Z,93.32
2019-04-01T04:06:37.027Z,93.32
2019-04-01T04:07:37.040Z,93.32
2019-04-01T04:08:37.060Z,92.94
2019-04-01T04:09:37.081Z,93.13
2019-04-01T04:10:37.080Z,93.42
2019-04-01T04:12:37.139Z,93.32
2019-04-01T04:13:37.316Z,93.32
2019-04-01T04:16:37.142Z,93.61
2019-04-01T04:17:37.895Z,93.23
2019-04-01T04:18:37.133Z,93.70
2019-04-01T04:19:37.145Z,93.51
2019-04-01T04:20:37.203Z,93.70
2019-04-01T04:21:37.164Z,94.46
2019-04-01T04:22:37.175Z,93.99
2019-04-01T04:23:37.181Z,93.51
2019-04-01T04:24:37.237Z,93.42
2019-04-01T04:25:37.200Z,93.51
2019-04-01T04:26:37.213Z,93.61
2019-04-01T04:27:37.264Z,93.51
2019-04-01T04:28:37.224Z,94.08
2019-04-01T04:29:37.242Z,94.37
2019-04-01T04:30:37.241Z,94.27
2019-04-01T04:31:37.265Z,93.99
2019-04-01T04:32:37.577Z,93.80
2019-04-01T04:33:37.335Z,94.08
2019-04-01T04:34:37.353Z,94.37
2019-04-01T04:35:37.597Z,93.80
2019-04-01T04:36:37.297Z,93.32
2019-04-01T04:37:37.449Z,94.08
2019-04-01T04:38:37.338Z,94.18
2019-04-01T04:40:40.743Z,93.51
2019-04-01T04:41:38.323Z,93.99
2019-04-01T04:42:37.533Z,94.27
2019-04-01T04:43:38.313Z,93.51
2019-04-01T04:44:37.606Z,93.61
2019-04-01T04:45:37.526Z,93.32
2019-04-01T04:46:38.080Z,93.32
2019-04-01T04:47:37.632Z,93.70
2019-04-01T04:48:37.666Z,94.08
2019-04-01T04:49:37.432Z,93.32
2019-04-01T04:50:38.335Z,93.23
2019-04-01T04:51:38.103Z,92.76
2019-04-01T04:53:38.040Z,94.08
2019-04-01T04:54:37.600Z,94.46
2019-04-01T04:55:37.517Z,93.70
2019-04-01T04:56:38.096Z,93.32
2019-04-01T04:57:37.481Z,93.23
2019-04-01T04:58:37.693Z,93.42
2019-04-01T04:59:37.584Z,92.85
2019-04-01T05:00:37.616Z,92.38
2019-04-01T05:01:37.551Z,92.19
2019-04-01T05:02:37.771Z,92.28
2019-04-01T05:04:37.823Z,92.66
2019-04-01T05:05:38.612Z,92.94
2019-04-01T05:06:38.526Z,92.38
2019-04-01T05:07:40.965Z,92.47
2019-04-01T05:10:37.928Z,91.90
2019-04-01T05:13:38.117Z,91.81
2019-04-01T05:14:37.632Z,91.90
2019-04-01T05:15:37.648Z,91.71
2019-04-01T05:16:37.697Z,91.62
2019-04-01T05:17:37.660Z,91.14
2019-04-01T05:18:37.664Z,91.24
2019-04-01T05:19:37.675Z,91.90
2019-04-01T05:20:37.682Z,91.33
2019-04-01T05:21:37.723Z,92.38
2019-04-01T05:22:37.699Z,90.95
2019-04-01T05:23:37.736Z,90.67
2019-04-01T05:24:37.718Z,90.58
2019-04-01T05:25:38.037Z,91.14
2019-04-01T05:26:37.741Z,90.95
2019-04-01T05:27:37.750Z,90.77
2019-04-01T05:28:37.793Z,91.14
2019-04-01T05:29:37.754Z,91.05
2019-04-01T05:30:37.811Z,90.95
2019-04-01T05:31:37.773Z,91.05
2019-04-01T05:32:37.782Z,90.77
2019-04-01T05:34:39.817Z,91.24
2019-04-01T05:36:38.101Z,91.62
2019-04-01T05:38:37.836Z,91.33
2019-04-01T05:39:37.844Z,92.19
2019-04-01T05:40:37.854Z,91.43
2019-04-01T05:41:37.870Z,92.00
2019-04-01T05:42:37.876Z,90.95
2019-04-01T05:43:37.942Z,90.77
2019-04-01T05:44:37.904Z,91.24
2019-04-01T05:45:38.009Z,91.05
2019-04-01T05:47:37.912Z,91.90
2019-04-01T05:48:37.925Z,91.90
2019-04-01T05:49:37.958Z,91.24
2019-04-01T05:50:37.971Z,90.95
2019-04-01T05:51:37.954Z,91.24
2019-04-01T05:52:37.961Z,90.86
2019-04-01T05:53:38.270Z,90.67
2019-04-01T05:55:37.995Z,90.86
2019-04-01T05:57:38.358Z,91.24
2019-04-01T05:58:38.051Z,91.05
2019-04-01T05:59:38.067Z,90.29
2019-04-01T06:00:38.029Z,89.72
2019-04-01T06:01:38.054Z,89.25
2019-04-01T06:03:38.064Z,88.59
2019-04-01T06:04:38.087Z,88.54
2019-04-01T06:05:38.304Z,88.11
2019-04-01T06:06:38.302Z,88.11
2019-04-01T06:07:38.134Z,88.16
2019-04-01T06:08:38.109Z,87.97
2019-04-01T06:11:39.291Z,88.16
2019-04-01T06:12:38.359Z,87.97
2019-04-01T06:13:38.279Z,87.02
2019-04-01T06:14:38.706Z,86.74
2019-04-01T06:15:39.221Z,87.02
2019-04-01T06:16:39.360Z,86.93
2019-04-01T06:17:38.596Z,86.93
2019-04-01T06:18:38.197Z,86.26
2019-04-01T06:19:38.593Z,85.97
2019-04-01T06:20:38.205Z,85.69
2019-04-01T06:21:38.956Z,85.78
2019-04-01T06:22:38.288Z,85.60
2019-04-01T06:23:38.496Z,85.13
2019-04-01T06:24:40.454Z,85.22
2019-04-01T06:25:38.277Z,85.41
2019-04-01T06:26:38.308Z,85.78
2019-04-01T06:27:38.293Z,85.13
2019-04-01T06:28:38.851Z,85.31
2019-04-01T06:29:38.345Z,84.94
2019-04-01T06:31:41.898Z,84.55
2019-04-01T06:32:38.508Z,84.36
2019-04-01T06:36:38.995Z,83.89
2019-04-01T06:37:39.316Z,84.03
2019-04-01T06:39:39.243Z,83.17
2019-04-01T06:40:38.887Z,82.89
2019-04-01T06:41:39.071Z,82.51
2019-04-01T06:42:38.754Z,82.13
2019-04-01T06:43:38.417Z,82.23
2019-04-01T06:44:38.420Z,82.13
2019-04-01T06:45:38.483Z,81.94
2019-04-01T06:46:39.032Z,82.60
2019-04-01T06:47:38.564Z,81.56
2019-04-01T06:48:38.485Z,81.56
2019-04-01T06:49:38.465Z,81.09
2019-04-01T06:50:38.480Z,80.43
2019-04-01T06:51:38.494Z,80.80
2019-04-01T06:52:38.506Z,80.80
2019-04-01T06:53:38.581Z,80.90
2019-04-01T06:54:38.513Z,80.14
2019-04-01T06:55:46.151Z,80.24
2019-04-01T06:56:38.573Z,80.04
2019-04-01T06:57:38.670Z,79.76
2019-04-01T06:58:39.071Z,79.47
2019-04-01T06:59:39.737Z,78.95
2019-04-01T07:00:38.848Z,78.56
2019-04-01T07:01:38.582Z,78.28
2019-04-01T07:02:38.918Z,77.81
2019-04-01T07:03:39.437Z,77.90
2019-04-01T07:04:39.454Z,77.90
2019-04-01T07:05:38.651Z,77.14
2019-04-01T07:06:38.770Z,77.43
2019-04-01T07:07:38.642Z,77.33
2019-04-01T07:08:38.664Z,76.86
2019-04-01T07:09:39.382Z,76.48
2019-04-01T07:10:38.680Z,76.39
2019-04-01T07:11:39.065Z,76.67
2019-04-01T07:12:38.687Z,76.01
2019-04-01T07:13:40.223Z,75.81
2019-04-01T07:14:38.721Z,75.91
2019-04-01T07:15:38.720Z,76.29
2019-04-01T07:17:39.088Z,74.71
2019-04-01T07:18:39.841Z,74.77
2019-04-01T07:20:39.025Z,74.62
2019-04-01T07:21:38.869Z,74.52
2019-04-01T07:23:42.220Z,74.33
2019-04-01T07:24:39.799Z,73.86
2019-04-01T07:25:38.816Z,74.24
2019-04-01T07:26:38.825Z,74.24
2019-04-01T07:27:38.851Z,73.76
2019-04-01T07:28:38.926Z,73.86
2019-04-01T07:29:38.881Z,73.96
2019-04-01T07:30:41.836Z,73.57
2019-04-01T07:31:38.869Z,73.76
2019-04-01T07:32:38.881Z,73.57
2019-04-01T07:33:39.354Z,73.19
2019-04-01T07:34:38.940Z,72.81
2019-04-01T07:35:38.923Z,72.06
2019-04-01T07:36:38.916Z,72.34
2019-04-01T07:37:39.325Z,71.62
2019-04-01T07:38:39.751Z,71.39
2019-04-01T07:39:39.295Z,71.04
2019-04-01T07:40:39.006Z,70.67
2019-04-01T07:45:39.004Z,70.86
2019-04-01T07:46:39.042Z,70.76
2019-04-01T07:47:39.093Z,70.57
2019-04-01T07:48:39.037Z,70.10
2019-04-01T07:49:39.049Z,69.62
2019-04-01T07:50:39.060Z,68.86
2019-04-01T07:51:39.076Z,68.48
2019-04-01T07:52:39.177Z,68.39
2019-04-01T07:53:39.083Z,68.77
2019-04-01T07:54:39.094Z,68.19
2019-04-01T07:55:39.111Z,68.19
2019-04-01T07:56:39.116Z,67.63
2019-04-01T07:57:39.125Z,68.42
2019-04-01T07:58:39.177Z,68.19
2019-04-01T07:59:39.172Z,68.04
2019-04-01T08:00:39.354Z,68.04
2019-04-01T08:02:39.681Z,67.76
2019-04-01T08:03:41.910Z,67.94
2019-04-01T08:07:39.247Z,67.00
2019-04-01T08:08:39.272Z,66.80
2019-04-01T08:09:39.398Z,66.42
2019-04-01T08:10:39.757Z,66.33
2019-04-01T08:11:39.953Z,66.33
2019-04-01T08:12:39.372Z,66.71
2019-04-01T08:13:39.574Z,67.00
2019-04-01T08:14:40.724Z,66.52
2019-04-01T08:15:40.044Z,66.61
2019-04-01T08:16:40.031Z,66.80
2019-04-01T08:17:39.637Z,66.52
2019-04-01T08:19:39.361Z,66.71
2019-04-01T08:20:39.651Z,66.90
2019-04-01T08:21:40.340Z,67.03
2019-04-01T08:22:43.020Z,66.74
2019-04-01T08:23:39.820Z,66.74
2019-04-01T08:25:39.606Z,66.46
2019-04-01T08:27:40.316Z,65.89
2019-04-01T08:28:41.271Z,65.80
2019-04-01T08:29:40.472Z,65.60
2019-04-01T08:30:40.379Z,65.80
2019-04-01T08:31:40.029Z,66.17
2019-04-01T08:32:39.497Z,65.92
2019-04-01T08:33:39.607Z,65.83
2019-04-01T08:34:39.623Z,65.45
2019-04-01T08:36:40.000Z,65.25
2019-04-01T08:37:40.473Z,65.16
2019-04-01T08:38:40.632Z,65.54
2019-04-01T08:39:39.920Z,65.25
2019-04-01T08:40:40.423Z,64.78
2019-04-01T08:41:40.361Z,64.78
2019-04-01T08:42:40.051Z,65.16
2019-04-01T08:43:41.531Z,65.06
2019-04-01T08:45:41.551Z,64.97
2019-04-01T08:47:40.807Z,64.78
2019-04-01T08:48:40.968Z,64.72
2019-04-01T08:49:39.751Z,64.59
2019-04-01T08:51:41.102Z,63.57
2019-04-01T08:52:39.987Z,63.10
2019-04-01T08:53:39.956Z,62.91
2019-04-01T08:54:39.989Z,62.81
2019-04-01T08:55:39.789Z,62.34
2019-04-01T08:56:39.867Z,62.62
2019-04-01T08:57:40.832Z,63.10
2019-04-01T08:58:39.847Z,63.10
2019-04-01T08:59:41.185Z,62.62
2019-04-01T09:00:39.883Z,62.43
2019-04-01T09:02:40.266Z,61.90
2019-04-01T09:03:41.291Z,61.10
2019-04-01T09:04:39.924Z,61.70
2019-04-01T09:05:40.687Z,61.13
2019-04-01T09:06:39.865Z,60.75
2019-04-01T09:10:40.438Z,61.22
2019-04-01T09:13:40.437Z,60.46
2019-04-01T09:14:40.025Z,60.66
2019-04-01T09:15:41.424Z,60.94
2019-04-01T09:16:40.901Z,60.46
2019-04-01T09:18:40.291Z,60.08
2019-04-01T09:21:40.030Z,59.89
2019-04-01T09:22:41.948Z,59.70
2019-04-01T09:24:40.156Z,59.42
2019-04-01T09:25:40.501Z,59.89
2019-04-01T09:26:40.093Z,59.42
2019-04-01T09:27:40.228Z,59.74
2019-04-01T09:28:40.166Z,59.54
2019-04-01T09:29:40.275Z,59.83
2019-04-01T09:31:40.371Z,59.54
2019-04-01T09:32:40.428Z,59.92
2019-04-01T09:33:40.416Z,59.54
2019-04-01T09:34:40.614Z,59.16
2019-04-01T09:35:40.995Z,59.06
2019-04-01T09:36:40.895Z,58.11
2019-04-01T09:37:40.653Z,58.02
2019-04-01T09:38:41.451Z,58.21
2019-04-01T09:39:40.250Z,57.95
2019-04-01T09:41:40.406Z,57.57
2019-04-01T09:42:41.416Z,57.28
2019-04-01T09:43:40.808Z,57.00
2019-04-01T09:44:41.166Z,56.71
2019-04-01T09:45:40.727Z,56.81
2019-04-01T09:46:41.417Z,57.28
2019-04-01T09:47:40.439Z,56.43
2019-04-01T09:48:42.526Z,56.43
2019-04-01T09:50:41.003Z,56.52
2019-04-01T09:52:40.450Z,56.43
2019-04-01T09:57:40.432Z,56.71
2019-04-01T09:58:40.446Z,55.66
2019-04-01T09:59:40.506Z,55.85
2019-04-01T10:00:40.482Z,55.85
2019-04-01T10:01:40.527Z,55.95
2019-04-01T10:02:40.490Z,55.47
2019-04-01T10:03:40.509Z,55.66
2019-04-01T10:04:40.532Z,56.04
2019-04-01T10:05:40.655Z,56.52
2019-04-01T10:06:40.606Z,55.98
2019-04-01T10:07:40.674Z,55.69
2019-04-01T10:08:42.329Z,55.31
2019-04-01T10:09:40.602Z,55.12
2019-04-01T10:10:40.586Z,55.12
2019-04-01T10:11:40.595Z,55.21
2019-04-01T10:12:40.613Z,54.74
2019-04-01T10:13:40.628Z,54.93
2019-04-01T10:14:40.639Z,54.45
2019-04-01T10:15:40.645Z,54.17
2019-04-01T10:16:40.655Z,53.97
2019-04-01T10:17:40.671Z,54.17
2019-04-01T10:18:40.695Z,54.07
2019-04-01T10:19:40.702Z,54.07
2019-04-01T10:20:40.702Z,54.17
2019-04-01T10:21:40.721Z,54.17
2019-04-01T10:22:40.729Z,54.07
2019-04-01T10:23:40.746Z,53.78
2019-04-01T10:24:40.755Z,53.78
2019-04-01T10:25:40.769Z,54.26
2019-04-01T10:26:40.785Z,54.17
2019-04-01T10:27:40.794Z,54.67
2019-04-01T10:28:40.810Z,54.10
2019-04-01T10:29:40.814Z,53.53
2019-04-01T10:30:40.833Z,53.24
2019-04-01T10:31:40.848Z,53.53
2019-04-01T10:32:40.876Z,53.24
2019-04-01T10:33:40.861Z,53.53
2019-04-01T10:34:40.889Z,53.62
2019-04-01T10:35:40.885Z,53.14
2019-04-01T10:36:40.900Z,53.33
2019-04-01T10:37:40.918Z,53.91
2019-04-01T10:38:40.926Z,53.14
2019-04-01T10:39:40.933Z,52.76
2019-04-01T10:40:40.954Z,52.95
2019-04-01T10:41:40.970Z,53.24
2019-04-01T10:42:40.975Z,53.33
2019-04-01T10:43:40.985Z,53.05
2019-04-01T10:44:40.999Z,53.24
2019-04-01T10:45:41.019Z,53.55
2019-04-01T10:46:41.057Z,53.17
2019-04-01T10:47:41.054Z,52.40
2019-04-01T10:48:41.090Z,52.50
2019-04-01T10:49:41.095Z,52.50
2019-04-01T10:50:41.144Z,52.50
2019-04-01T10:51:41.154Z,52.31
2019-04-01T10:52:44.044Z,52.59
2019-04-01T10:53:41.170Z,52.50
2019-04-01T10:54:41.195Z,52.12
2019-04-01T10:55:41.135Z,51.93
2019-04-01T10:56:41.186Z,51.93
2019-04-01T10:57:43.547Z,52.50
2019-04-01T10:58:41.215Z,51.93
2019-04-01T10:59:41.279Z,51.93
2019-04-01T11:00:41.237Z,51.54
2019-04-01T11:01:41.227Z,52.12
2019-04-01T11:02:41.246Z,52.31
2019-04-01T11:03:41.374Z,52.03
2019-04-01T11:04:41.370Z,52.12
2019-04-01T11:05:41.294Z,51.83
2019-04-01T11:06:41.338Z,52.03
2019-04-01T11:07:41.349Z,50.98
2019-04-01T11:08:41.368Z,50.69
2019-04-01T11:09:41.312Z,51.17
2019-04-01T11:10:41.319Z,51.07
2019-04-01T11:11:41.337Z,50.98
2019-04-01T11:12:41.343Z,50.59
2019-04-01T11:13:41.357Z,50.98
2019-04-01T11:14:41.367Z,51.07
2019-04-01T11:15:41.384Z,50.69
2019-04-01T11:16:41.398Z,51.26
2019-04-01T11:17:41.413Z,51.74
2019-04-01T11:18:41.426Z,51.93
2019-04-01T11:19:41.436Z,52.12
2019-04-01T11:20:41.442Z,52.15
2019-04-01T11:21:41.454Z,51.38
2019-04-01T11:22:41.466Z,51.00
2019-04-01T11:23:41.481Z,50.71
2019-04-01T11:24:41.495Z,50.81
2019-04-01T11:25:41.512Z,50.71
2019-04-01T11:26:41.524Z,50.59
2019-04-01T11:27:41.531Z,50.59
2019-04-01T11:28:41.747Z,50.88
2019-04-01T11:29:41.559Z,50.62
2019-04-01T11:30:41.599Z,50.59
2019-04-01T11:31:41.615Z,50.49
2019-04-01T11:32:41.602Z,50.59
2019-04-01T11:33:41.616Z,50.59
2019-04-01T11:34:41.641Z,50.88
2019-04-01T11:35:41.684Z,50.78
2019-04-01T11:36:42.267Z,50.88
2019-04-01T11:37:41.938Z,52.05
2019-04-01T11:38:41.677Z,51.19
2019-04-01T11:39:41.724Z,50.71
2019-04-01T11:40:41.700Z,49.98
2019-04-01T11:41:41.729Z,50.07
2019-04-01T11:42:41.745Z,51.12
2019-04-01T11:43:41.835Z,50.64
2019-04-01T11:44:41.774Z,49.78
2019-04-01T11:45:41.881Z,49.21
2019-04-01T11:46:41.811Z,49.11
2019-04-01T11:47:41.813Z,49.40
2019-04-01T11:48:41.852Z,48.93
2019-04-01T11:49:41.863Z,49.21
2019-04-01T11:50:41.845Z,49.98
2019-04-01T11:51:41.926Z,49.30
2019-04-01T11:52:41.927Z,49.30
2019-04-01T11:53:41.862Z,49.11
2019-04-01T11:54:41.874Z,49.21
2019-04-01T11:55:41.888Z,49.30
2019-04-01T11:56:41.898Z,49.30
2019-04-01T11:57:41.912Z,49.40
2019-04-01T11:58:41.936Z,49.21
2019-04-01T11:59:41.940Z,48.54
2019-04-01T12:00:41.956Z,49.38
2019-04-01T12:01:41.962Z,49.57
2019-04-01T12:02:41.980Z,50.33
2019-04-01T12:03:41.991Z,50.62
2019-04-01T12:04:42.008Z,50.71
2019-04-01T12:05:42.016Z,50.74
2019-04-01T12:06:42.034Z,49.59
2019-04-01T12:07:42.048Z,49.28
2019-04-01T12:08:42.063Z,49.47
2019-04-01T12:09:42.068Z,49.38
2019-04-01T12:10:42.084Z,49.35
2019-04-01T12:11:42.092Z,50.52
2019-04-01T12:12:42.101Z,50.04
2019-04-01T12:13:42.116Z,50.16
2019-04-01T12:14:42.143Z,50.35
2019-04-01T12:15:42.143Z,49.14
2019-04-01T12:16:42.154Z,49.23
2019-04-01T12:17:42.405Z,49.14
2019-04-01T12:18:42.180Z,48.18
2019-04-01T12:19:42.191Z,47.89
2019-04-01T12:20:42.204Z,48.38
2019-04-01T12:21:42.228Z,47.78
2019-04-01T12:22:45.441Z,48.44
2019-04-01T12:23:42.252Z,48.83
2019-04-01T12:24:42.256Z,49.14
2019-04-01T12:25:42.277Z,48.47
2019-04-01T12:26:42.351Z,48.09
2019-04-01T12:27:42.296Z,48.38
2019-04-01T12:28:42.724Z,47.61
2019-04-01T12:29:42.335Z,47.42
2019-04-01T12:30:42.339Z,47.53
2019-04-01T12:31:42.350Z,47.63
2019-04-01T12:32:42.367Z,47.73
2019-04-01T12:33:42.376Z,47.34
2019-04-01T12:34:42.429Z,47.44
2019-04-01T12:35:42.402Z,47.25
2019-04-01T12:36:42.416Z,47.63
2019-04-01T12:37:42.485Z,47.63
2019-04-01T12:38:42.443Z,47.53
2019-04-01T12:39:42.459Z,47.92
2019-04-01T12:40:42.473Z,47.82
2019-04-01T12:41:42.483Z,47.06
2019-04-01T12:42:42.546Z,47.23
2019-04-01T12:43:42.506Z,48.09
2019-04-01T12:44:42.518Z,47.99
2019-04-01T12:45:42.532Z,49.33
2019-04-01T12:46:42.564Z,48.49
2019-04-01T12:47:43.380Z,47.99
2019-04-01T12:48:42.590Z,48.47
2019-04-01T12:49:42.588Z,48.11
2019-04-01T12:50:42.610Z,48.21
2019-04-01T12:51:42.615Z,47.66
2019-04-01T12:52:42.624Z,47.75
2019-04-01T12:53:42.644Z,47.75
2019-04-01T12:54:42.659Z,46.41
2019-04-01T12:55:45.000Z,46.03
2019-04-01T12:56:42.686Z,46.67
2019-04-01T12:57:42.695Z,47.16
2019-04-01T12:58:42.710Z,47.92
2019-04-01T12:59:45.812Z,47.92
2019-04-01T13:00:42.748Z,47.94
2019-04-01T13:01:42.746Z,47.53
2019-04-01T13:02:42.767Z,47.73
2019-04-01T13:03:42.999Z,48.39
2019-04-01T13:04:42.792Z,48.21
2019-04-01T13:05:42.996Z,48.30
2019-04-01T13:06:42.817Z,47.75
2019-04-01T13:07:43.048Z,47.73
2019-04-01T13:08:42.839Z,47.44
2019-04-01T13:09:42.853Z,47.73
2019-04-01T13:10:42.864Z,48.49
2019-04-01T13:11:42.883Z,47.27
2019-04-01T13:12:42.888Z,47.37
2019-04-01T13:13:42.953Z,45.94
2019-04-01T13:14:43.502Z,46.51
2019-04-01T13:15:42.933Z,46.12
2019-04-01T13:16:42.945Z,46.41
2019-04-01T13:17:42.962Z,46.70
2019-04-01T13:18:42.975Z,47.37
2019-04-01T13:19:42.986Z,47.66
2019-04-01T13:20:43.307Z,48.23
2019-04-01T13:21:43.017Z,48.42
2019-04-01T13:22:43.028Z,47.87
2019-04-01T13:23:43.055Z,46.31
2019-04-01T13:24:43.053Z,46.22
2019-04-01T13:25:43.072Z,46.80
2019-04-01T13:26:43.089Z,46.41
2019-04-01T13:27:43.089Z,46.80
2019-04-01T13:28:43.104Z,47.27
2019-04-01T13:29:43.120Z,47.49
2019-04-01T13:30:43.132Z,46.91
2019-04-01T13:31:43.141Z,46.89
2019-04-01T13:32:43.157Z,47.25
2019-04-01T13:33:43.181Z,49.38
2019-04-01T13:34:43.192Z,48.44
2019-04-01T13:35:43.205Z,48.16
2019-04-01T13:36:43.211Z,47.20
2019-04-01T13:37:43.221Z,47.30
2019-04-01T13:38:44.083Z,45.96
2019-04-01T13:39:43.254Z,45.65
2019-04-01T13:40:44.275Z,46.41
2019-04-01T13:41:43.325Z,46.80
2019-04-01T13:42:43.722Z,46.72
2019-04-01T13:43:43.302Z,46.44
2019-04-01T13:44:43.324Z,46.84
2019-04-01T13:45:43.334Z,45.79
2019-04-01T13:46:43.346Z,46.55
2019-04-01T13:47:43.363Z,44.54
2019-04-01T13:48:56.951Z,44.71
2019-04-01T13:49:43.394Z,45.38
2019-04-01T13:50:43.405Z,45.38
2019-04-01T13:51:43.874Z,45.67
2019-04-01T13:52:43.456Z,45.86
2019-04-01T13:53:43.442Z,46.34
2019-04-01T13:54:43.569Z,46.34
2019-04-01T13:55:43.471Z,45.62
2019-04-01T13:56:43.509Z,44.30
2019-04-01T13:57:43.500Z,43.34
2019-04-01T13:58:43.515Z,42.57
2019-04-01T13:59:49.554Z,42.38
2019-04-01T14:00:43.556Z,43.17
2019-04-01T14:01:43.570Z,42.23
2019-04-01T14:02:43.580Z,40.99
2019-04-01T14:03:43.595Z,40.87
2019-04-01T14:04:43.615Z,41.56
2019-04-01T14:05:43.629Z,40.50
2019-04-01T14:06:43.647Z,40.14
2019-04-01T14:07:43.668Z,40.23
2019-04-01T14:08:43.686Z,39.66
2019-04-01T14:09:43.710Z,39.45